Terminal Aerodrome Forecast
Issued by NWS Springfield, MO

Home | Current Version | Previous Version | Text Only | Print | Product List | Glossary On
Versions: 1 2 3 4 5 6 7 8 9 10 11 12 13 14 15 16 17 18
718
FTUS43 KSGF 082320
TAFSGF
TAF
KSGF 082320Z 0900/0924 32014G25KT P6SM OVC050
     FM090800 32012KT P6SM SCT250
     FM091400 32015G25KT P6SM SKC=

USA.gov is the U.S. government's official web portal to all federal, state and local government web resources and services.